Time;durP1;ratioP1;P1;durP2;ratioP2;P2;SDS_P1;SDS_P2;PMS_P1;PMS_P2;Temp;Humidity;BMP_temperature;BMP_pressure;BME280_temperature;BME280_humidity;BME280_pressure;Samples;Min_cycle;Max_cycle;Signal;HPM_P1;HPM_P2
2024/01/29 00:01:17;;;;;;;2.50;2.30;;;;;;;19.37;48.01;98905.22;5063384;28;20255;-25
2024/01/29 00:03:45;;;;;;;3.07;2.30;;;;;;;19.38;47.32;98904.44;5064777;28;20204;-25
2024/01/29 00:06:12;;;;;;;2.13;1.93;;;;;;;19.37;47.87;98901.03;5058683;28;20769;-29
2024/01/29 00:08:38;;;;;;;2.33;2.13;;;;;;;19.38;47.99;98906.97;5069167;28;20197;-25
2024/01/29 00:11:05;;;;;;;2.33;2.00;;;;;;;19.32;47.91;98892.22;5063702;28;20201;-26
2024/01/29 00:13:32;;;;;;;2.57;2.20;;;;;;;19.37;47.90;98901.03;5065142;28;20236;-25
2024/01/29 00:15:59;;;;;;;1.83;1.73;;;;;;;19.37;47.92;98898.47;5064816;28;20232;-26
2024/01/29 00:18:26;;;;;;;2.40;2.20;;;;;;;19.38;48.02;98899.34;5072902;28;20218;-25
2024/01/29 00:20:52;;;;;;;2.47;2.27;;;;;;;19.38;47.90;98904.44;5061635;28;20283;-26
2024/01/29 00:23:19;;;;;;;2.10;1.90;;;;;;;19.38;47.92;98899.34;5063416;28;20231;-28
2024/01/29 00:25:46;;;;;;;2.20;2.00;;;;;;;19.38;48.00;98900.22;5071973;28;20316;-26
2024/01/29 00:28:13;;;;;;;2.20;2.00;;;;;;;19.38;47.90;98900.22;5061048;28;20204;-25
2024/01/29 00:30:39;;;;;;;2.37;2.17;;;;;;;19.37;47.95;98898.47;5053913;28;20284;-36
2024/01/29 00:33:06;;;;;;;2.30;2.10;;;;;;;19.38;48.02;98896.78;5067413;28;20266;-25
2024/01/29 00:35:33;;;;;;;2.30;2.10;;;;;;;19.37;48.07;98897.59;5059298;28;20213;-25
2024/01/29 00:38:00;;;;;;;2.57;2.30;;;;;;;19.37;48.07;98901.03;5059040;28;20228;-27
2024/01/29 00:40:26;;;;;;;3.00;2.20;;;;;;;19.37;47.83;98900.13;5062612;28;20201;-25
2024/01/29 00:42:53;;;;;;;2.23;2.03;;;;;;;19.37;47.91;98915.44;5060068;28;20224;-25
2024/01/29 00:45:20;;;;;;;2.43;2.23;;;;;;;19.36;48.09;98916.22;5053069;28;20286;-25
2024/01/29 00:47:47;;;;;;;2.93;2.27;;;;;;;19.36;48.07;98904.34;5060239;28;20627;-25
2024/01/29 00:50:13;;;;;;;2.40;2.20;;;;;;;19.36;48.01;98908.59;5056027;28;20201;-25
2024/01/29 00:52:40;;;;;;;2.43;2.23;;;;;;;19.36;48.02;98906.88;5063315;28;20235;-25
2024/01/29 00:55:07;;;;;;;2.33;2.10;;;;;;;19.37;48.05;98906.13;5064243;28;20278;-25
2024/01/29 00:57:33;;;;;;;2.53;2.33;;;;;;;19.38;47.96;98907.88;5058655;28;20193;-25
2024/01/29 01:00:00;;;;;;;2.30;2.10;;;;;;;19.38;47.78;98896.78;5061942;28;20196;-25
2024/01/29 01:02:27;;;;;;;2.13;1.97;;;;;;;19.39;47.82;98906.22;5059594;28;20274;-26
2024/01/29 01:04:53;;;;;;;2.40;2.20;;;;;;;19.40;47.92;98902.88;5059382;28;20235;-25
2024/01/29 01:07:20;;;;;;;2.53;2.33;;;;;;;19.39;47.79;98908.75;5061693;28;20283;-25
2024/01/29 01:09:47;;;;;;;2.37;2.17;;;;;;;19.39;47.96;98903.66;5059598;28;20208;-25
2024/01/29 01:12:13;;;;;;;2.50;2.30;;;;;;;19.39;48.09;98906.22;5063150;28;20196;-25
2024/01/29 01:14:40;;;;;;;2.37;2.17;;;;;;;19.37;48.05;98901.03;5060885;28;20220;-25
2024/01/29 01:17:07;;;;;;;2.37;2.17;;;;;;;19.37;48.16;98900.13;5065508;28;20259;-25
2024/01/29 01:19:33;;;;;;;2.60;2.30;;;;;;;19.37;48.14;98900.13;5067042;28;20220;-25
2024/01/29 01:22:00;;;;;;;2.50;2.30;;;;;;;19.37;47.91;98905.22;5055608;28;20221;-25
2024/01/29 01:24:27;;;;;;;2.40;2.20;;;;;;;19.37;48.28;98902.69;5071601;28;20259;-33
2024/01/29 01:26:54;;;;;;;2.80;2.40;;;;;;;19.36;48.17;98898.38;5064372;28;20211;-27
2024/01/29 01:29:20;;;;;;;2.43;2.23;;;;;;;19.36;48.29;98909.44;5062167;28;20236;-25
2024/01/29 01:31:47;;;;;;;2.57;2.10;;;;;;;19.35;48.09;98910.25;5068781;28;20230;-25
2024/01/29 01:34:13;;;;;;;2.20;2.00;;;;;;;19.36;48.04;98909.44;5063298;28;20200;-25
2024/01/29 01:36:40;;;;;;;2.30;2.10;;;;;;;19.35;48.26;98907.69;5062485;28;20197;-26
2024/01/29 01:39:08;;;;;;;2.40;2.20;;;;;;;19.36;48.16;98909.44;5066977;28;20206;-27
2024/01/29 01:41:35;;;;;;;2.87;2.50;;;;;;;19.35;48.18;98907.69;5060764;28;20222;-26
2024/01/29 01:44:01;;;;;;;2.30;2.10;;;;;;;19.36;48.19;98906.03;5056899;28;20246;-26
2024/01/29 01:46:28;;;;;;;2.13;2.03;;;;;;;19.35;48.14;98896.59;5071328;28;20698;-25
2024/01/29 01:48:54;;;;;;;2.90;2.40;;;;;;;19.37;48.07;98902.69;5040268;28;20223;-25
2024/01/29 01:51:22;;;;;;;3.03;2.60;;;;;;;19.37;48.27;98889.94;5061619;28;20279;-29
2024/01/29 01:53:53;;;;;;;2.30;2.10;;;;;;;19.37;48.05;98903.56;5063124;28;20682;-25
2024/01/29 01:56:20;;;;;;;2.47;2.27;;;;;;;19.34;48.16;98899.94;5059185;28;20235;-26
2024/01/29 01:58:46;;;;;;;2.60;2.20;;;;;;;19.37;48.08;98907.78;5042792;28;20251;-25
2024/01/29 02:01:13;;;;;;;2.27;2.07;;;;;;;19.38;48.08;98896.78;5061653;28;20204;-25
2024/01/29 02:03:40;;;;;;;2.30;2.10;;;;;;;19.38;48.13;98897.69;5067083;28;20231;-27
2024/01/29 02:06:07;;;;;;;2.43;2.23;;;;;;;19.40;47.98;98891.00;5062968;28;20221;-26
2024/01/29 02:08:33;;;;;;;2.10;1.97;;;;;;;19.40;47.85;98893.56;5052344;28;20647;-25
2024/01/29 02:11:00;;;;;;;2.17;1.97;;;;;;;19.41;47.98;98890.22;5065390;28;20204;-25
2024/01/29 02:13:27;;;;;;;2.37;2.17;;;;;;;19.41;47.89;98890.22;5054030;28;20617;-25
2024/01/29 02:15:53;;;;;;;2.30;2.10;;;;;;;19.40;48.13;98888.47;5067231;28;20220;-25
2024/01/29 02:18:20;;;;;;;2.53;2.33;;;;;;;19.40;47.96;98878.25;5071029;28;20204;-25
2024/01/29 02:20:47;;;;;;;2.07;1.97;;;;;;;19.41;48.00;98886.78;5070682;28;20208;-25
2024/01/29 02:23:13;;;;;;;2.33;2.13;;;;;;;19.40;47.92;98879.91;5067123;28;20220;-25
2024/01/29 02:25:40;;;;;;;2.63;2.30;;;;;;;19.39;48.23;98879.03;5075470;22;20509;-25
2024/01/29 02:28:07;;;;;;;2.30;2.10;;;;;;;19.39;48.09;98879.03;5070843;28;20204;-26
2024/01/29 02:30:33;;;;;;;2.63;2.43;;;;;;;19.32;47.97;98868.38;5068353;28;20231;-25
2024/01/29 02:33:00;;;;;;;2.63;2.43;;;;;;;19.37;48.07;98885.72;5070575;28;20204;-25
2024/01/29 02:35:26;;;;;;;3.13;2.47;;;;;;;19.37;48.02;98883.19;5070025;28;20711;-25
2024/01/29 02:37:53;;;;;;;2.43;2.23;;;;;;;19.37;48.00;98888.28;5066420;28;20467;-25
2024/01/29 02:40:19;;;;;;;2.30;2.10;;;;;;;19.38;48.10;98890.03;5068832;28;20201;-26
2024/01/29 02:42:46;;;;;;;2.50;2.30;;;;;;;19.36;48.12;98890.75;5059911;28;20233;-25
2024/01/29 02:45:13;;;;;;;2.30;2.10;;;;;;;19.39;47.69;98893.47;5057407;28;20220;-25
2024/01/29 02:47:39;;;;;;;2.40;2.20;;;;;;;19.38;47.96;98887.47;5063922;28;20197;-30
2024/01/29 02:50:06;;;;;;;2.70;2.50;;;;;;;19.38;47.99;98882.38;5067354;28;20299;-25
2024/01/29 02:52:33;;;;;;;2.37;2.17;;;;;;;19.38;47.99;98882.38;5069068;28;20201;-25
2024/01/29 02:54:59;;;;;;;2.70;2.50;;;;;;;19.38;48.09;98877.28;5066447;28;20233;-26
2024/01/29 02:57:26;;;;;;;2.30;2.10;;;;;;;19.36;47.84;98873.75;5061038;28;20223;-25
2024/01/29 02:59:53;;;;;;;2.40;2.20;;;;;;;19.31;48.03;98859.88;5066979;28;20225;-25
2024/01/29 03:02:19;;;;;;;2.43;2.23;;;;;;;19.40;47.99;98873.16;5070064;28;20290;-25
2024/01/29 03:04:46;;;;;;;2.40;2.13;;;;;;;19.37;47.82;98859.34;5062037;28;20208;-27
2024/01/29 03:07:13;;;;;;;2.30;2.10;;;;;;;19.43;47.71;98872.44;5067568;28;20682;-25
2024/01/29 03:09:39;;;;;;;2.37;2.17;;;;;;;19.43;47.77;98867.34;5060049;28;20250;-25
2024/01/29 03:12:06;;;;;;;2.60;2.17;;;;;;;19.38;47.87;98867.09;5066111;28;20435;-26
2024/01/29 03:14:33;;;;;;;3.17;2.30;;;;;;;19.41;48.03;98877.47;5067702;28;20269;-30
2024/01/29 03:16:59;;;;;;;2.23;2.10;;;;;;;19.41;47.84;98872.38;5061499;28;20737;-25
2024/01/29 03:19:26;;;;;;;2.67;2.47;;;;;;;19.41;47.79;98868.91;5069858;28;20731;-25
2024/01/29 03:21:53;;;;;;;2.20;2.00;;;;;;;19.40;47.81;98879.91;5069875;28;20209;-35
2024/01/29 03:24:19;;;;;;;2.50;2.30;;;;;;;19.40;47.73;98877.38;5067631;28;20227;-25
2024/01/29 03:26:46;;;;;;;2.47;2.27;;;;;;;19.40;47.90;98885.03;5062626;28;20232;-25
2024/01/29 03:29:12;;;;;;;3.10;2.40;;;;;;;19.39;48.25;98870.53;5061436;28;20200;-25
2024/01/29 03:31:39;;;;;;;2.20;2.07;;;;;;;19.34;47.86;98851.53;5067686;28;20242;-26
2024/01/29 03:34:05;;;;;;;2.93;2.57;;;;;;;19.33;47.91;98848.09;5058871;28;20208;-26
2024/01/29 03:36:32;;;;;;;2.20;2.00;;;;;;;19.39;47.72;98857.78;5062196;28;20307;-25
2024/01/29 03:38:59;;;;;;;2.10;2.00;;;;;;;19.38;47.83;98861.97;5067439;28;20203;-25
2024/01/29 03:41:25;;;;;;;2.17;1.97;;;;;;;19.38;47.77;98859.44;5066926;28;20212;-25
2024/01/29 03:43:52;;;;;;;2.37;2.17;;;;;;;19.39;47.83;98860.31;5061641;28;20213;-29
2024/01/29 03:46:18;;;;;;;2.50;2.30;;;;;;;19.37;47.98;98860.25;5068846;28;20219;-25
2024/01/29 03:48:45;;;;;;;2.30;2.10;;;;;;;19.38;48.07;98863.66;5068606;28;20208;-25
2024/01/29 03:51:12;;;;;;;2.23;2.03;;;;;;;19.39;47.87;98866.28;5061969;28;20254;-26
2024/01/29 03:53:38;;;;;;;2.57;2.37;;;;;;;19.38;47.78;98861.09;5066651;28;20569;-27
2024/01/29 03:56:05;;;;;;;2.57;2.37;;;;;;;19.43;47.65;98870.78;5061021;28;20705;-25
2024/01/29 03:58:32;;;;;;;2.20;2.00;;;;;;;19.42;47.63;98865.59;5066749;28;20207;-27
2024/01/29 04:00:58;;;;;;;2.87;2.57;;;;;;;19.43;47.58;98867.34;5068498;28;20262;-26
2024/01/29 04:03:25;;;;;;;2.43;2.23;;;;;;;19.43;47.49;98864.81;5068291;28;20286;-25
2024/01/29 04:05:52;;;;;;;2.47;2.27;;;;;;;19.42;47.58;98870.72;5065443;28;20278;-25
2024/01/29 04:08:18;;;;;;;2.40;2.20;;;;;;;19.41;47.67;98862.16;5066413;28;20685;-25
2024/01/29 04:10:45;;;;;;;2.60;2.40;;;;;;;19.41;47.73;98851.06;5068474;28;20265;-25
2024/01/29 04:13:11;;;;;;;2.50;2.30;;;;;;;19.41;47.71;98854.53;5061514;28;20197;-25
2024/01/29 04:15:38;;;;;;;2.47;2.27;;;;;;;19.40;47.54;98850.22;5060126;28;20595;-25
2024/01/29 04:18:05;;;;;;;2.20;2.00;;;;;;;19.40;47.59;98860.41;5061556;28;20235;-25
2024/01/29 04:20:31;;;;;;;2.40;2.20;;;;;;;19.39;47.59;98853.53;5066417;28;20205;-26
2024/01/29 04:22:58;;;;;;;2.30;2.10;;;;;;;19.39;47.55;98858.63;5072041;28;20302;-25
2024/01/29 04:25:24;;;;;;;2.60;2.40;;;;;;;19.40;47.51;98857.88;5060904;28;20319;-25
2024/01/29 04:27:51;;;;;;;2.60;2.40;;;;;;;19.39;47.67;98856.09;5070153;28;20212;-26
2024/01/29 04:30:18;;;;;;;2.33;2.13;;;;;;;19.39;47.60;98857.78;5065647;28;20243;-25
2024/01/29 04:32:45;;;;;;;2.60;2.40;;;;;;;19.38;47.64;98851.78;5069539;28;20196;-25
2024/01/29 04:35:11;;;;;;;2.50;2.30;;;;;;;19.38;47.52;98851.78;5060102;28;20220;-25
2024/01/29 04:37:38;;;;;;;2.43;2.23;;;;;;;19.38;47.54;98859.44;5069902;28;20603;-27
2024/01/29 04:40:05;;;;;;;2.73;2.47;;;;;;;19.42;47.42;98857.97;5066864;28;20212;-25
2024/01/29 04:42:32;;;;;;;2.40;2.20;;;;;;;19.42;47.53;98851.16;5065792;28;20588;-25
2024/01/29 04:44:59;;;;;;;2.47;2.27;;;;;;;19.43;47.30;98852.94;5068747;28;20223;-26
2024/01/29 04:47:26;;;;;;;2.23;2.00;;;;;;;19.44;47.52;98858.91;5070516;28;20207;-25
2024/01/29 04:49:52;;;;;;;2.23;2.03;;;;;;;19.42;47.30;98851.16;5071349;28;20208;-25
2024/01/29 04:52:19;;;;;;;2.60;2.40;;;;;;;19.44;47.37;98862.34;5064655;28;20677;-25
2024/01/29 04:54:46;;;;;;;2.40;2.20;;;;;;;19.43;47.15;98863.16;5066293;28;20308;-25
2024/01/29 04:57:12;;;;;;;2.47;2.27;;;;;;;19.42;47.32;98866.47;5064906;28;20211;-25
2024/01/29 04:59:39;;;;;;;2.53;2.23;;;;;;;19.42;47.49;98863.06;5071870;28;20242;-28
2024/01/29 05:02:05;;;;;;;2.60;2.37;;;;;;;19.41;47.37;98859.63;5066680;28;20749;-25
2024/01/29 05:04:32;;;;;;;2.67;2.47;;;;;;;19.40;47.45;98856.97;5057174;28;20221;-26
2024/01/29 05:06:59;;;;;;;2.70;2.50;;;;;;;19.39;47.45;98861.19;5058284;28;20353;-25
2024/01/29 05:09:25;;;;;;;2.53;2.33;;;;;;;19.40;47.44;98862.06;5061576;28;20205;-26
2024/01/29 05:11:52;;;;;;;2.30;2.10;;;;;;;19.42;47.40;98857.97;5066239;28;20244;-25
2024/01/29 05:14:19;;;;;;;2.60;2.40;;;;;;;19.41;47.15;98853.63;5062883;28;20572;-25
2024/01/29 05:16:45;;;;;;;2.67;2.47;;;;;;;19.41;47.20;98861.28;5068022;28;20310;-25
2024/01/29 05:19:12;;;;;;;2.63;2.43;;;;;;;19.41;46.39;98861.28;5061723;28;20244;-31
2024/01/29 05:21:39;;;;;;;4.27;2.60;;;;;;;19.38;44.17;98854.34;5057698;28;20201;-27
2024/01/29 05:24:05;;;;;;;3.40;2.70;;;;;;;19.39;44.90;98858.63;5063689;28;20702;-25
2024/01/29 05:26:32;;;;;;;4.07;2.80;;;;;;;19.40;45.50;98860.41;5058416;28;20644;-26
2024/01/29 05:28:59;;;;;;;2.87;2.50;;;;;;;19.41;45.67;98862.16;5069991;28;20200;-28
2024/01/29 05:31:25;;;;;;;5.07;3.70;;;;;;;19.35;39.32;98876.22;5065837;28;20232;-25
2024/01/29 05:33:52;;;;;;;6.13;3.70;;;;;;;19.34;38.86;98871.91;5063602;28;20201;-31
2024/01/29 05:36:18;;;;;;;4.60;3.80;;;;;;;19.32;40.34;98874.38;5065536;28;20247;-27
2024/01/29 05:38:45;;;;;;;4.97;3.63;;;;;;;19.30;40.30;98880.19;5046526;28;20197;-25
2024/01/29 05:41:12;;;;;;;5.77;4.60;;;;;;;19.28;37.87;98879.19;5070249;28;20224;-25
2024/01/29 05:43:38;;;;;;;4.83;4.03;;;;;;;19.25;36.44;98876.44;5071069;28;20313;-25
2024/01/29 05:46:05;;;;;;;5.67;4.40;;;;;;;19.21;35.09;98871.91;5062789;28;20220;-25
2024/01/29 05:48:31;;;;;;;6.63;4.83;;;;;;;19.18;34.16;98872.63;5054461;28;20697;-26
2024/01/29 05:50:58;;;;;;;5.90;4.50;;;;;;;19.18;33.83;98880.28;5064538;28;20204;-25
2024/01/29 05:53:25;;;;;;;7.07;4.77;;;;;;;19.16;32.92;98883.53;5061926;28;20222;-25
2024/01/29 05:55:51;;;;;;;7.90;4.80;;;;;;;19.12;32.84;98886.66;5063441;28;20808;-26
2024/01/29 05:58:18;;;;;;;6.97;4.77;;;;;;;19.09;32.30;98878.84;5071461;28;20224;-25
2024/01/29 06:00:45;;;;;;;7.23;4.77;;;;;;;19.06;32.36;98883.75;5065333;28;20200;-25
2024/01/29 06:03:12;;;;;;;6.20;4.40;;;;;;;19.02;33.68;98885.25;5069591;28;20589;-25
2024/01/29 06:05:39;;;;;;;5.67;4.73;;;;;;;18.99;35.21;98887.63;5062315;28;20213;-27
2024/01/29 06:08:06;;;;;;;6.10;4.30;;;;;;;18.99;36.44;98877.41;5067084;28;20203;-27
2024/01/29 06:10:32;;;;;;;6.57;4.60;;;;;;;19.00;37.41;98883.38;5068403;28;20208;-25
2024/01/29 06:12:59;;;;;;;5.30;4.13;;;;;;;19.01;38.02;98885.16;5062459;28;20274;-26
2024/01/29 06:15:26;;;;;;;4.97;4.23;;;;;;;19.01;38.84;98882.59;5067993;28;20222;-25
2024/01/29 06:17:52;;;;;;;7.40;4.20;;;;;;;19.00;37.97;98881.72;5065976;28;20733;-27
2024/01/29 06:20:19;;;;;;;5.07;3.80;;;;;;;19.01;36.95;98891.13;5063748;28;20741;-25
2024/01/29 06:22:46;;;;;;;5.77;3.93;;;;;;;19.01;37.07;98882.59;5066294;28;20204;-25
2024/01/29 06:25:13;;;;;;;6.87;4.77;;;;;;;19.01;38.18;98891.13;5064472;28;20256;-34
2024/01/29 06:27:40;;;;;;;6.33;3.83;;;;;;;19.01;38.70;98891.13;5070211;28;20200;-25
2024/01/29 06:30:07;;;;;;;6.30;4.37;;;;;;;19.02;36.95;98897.09;5064413;28;20204;-26
2024/01/29 06:32:34;;;;;;;5.50;4.17;;;;;;;19.03;38.13;98893.75;5069875;28;20196;-25
2024/01/29 06:35:01;;;;;;;6.70;4.27;;;;;;;19.04;38.72;98898.09;5070754;28;20573;-25
2024/01/29 06:37:27;;;;;;;6.30;3.67;;;;;;;19.05;39.27;98902.38;5065874;28;20203;-25
2024/01/29 06:39:54;;;;;;;11.23;4.50;;;;;;;19.04;40.00;98898.94;5070590;28;20200;-31
2024/01/29 06:42:21;;;;;;;8.33;4.07;;;;;;;19.06;39.80;98894.81;5069135;28;20250;-28
2024/01/29 06:44:48;;;;;;;4.73;3.53;;;;;;;19.07;40.19;98911.00;5068161;28;20311;-25
2024/01/29 06:47:17;;;;;;;5.07;3.30;;;;;;;19.08;40.44;98911.09;5065681;28;20200;-25
2024/01/29 06:49:44;;;;;;;7.67;3.97;;;;;;;19.10;40.64;98911.19;5067614;28;20251;-25
2024/01/29 06:52:11;;;;;;;5.37;3.90;;;;;;;19.11;40.78;98916.38;5059365;28;20205;-26
2024/01/29 06:54:43;;;;;;;4.67;3.90;;;;;;;19.10;36.84;98916.28;5071359;28;20634;-25
2024/01/29 06:57:10;;;;;;;6.23;4.43;;;;;;;19.04;33.83;98905.72;5073567;28;20197;-25
2024/01/29 06:59:36;;;;;;;8.00;4.23;;;;;;;19.03;32.88;98911.59;5074116;28;20225;-26
2024/01/29 07:02:05;;;;;;;6.70;4.43;;;;;;;19.02;34.64;98914.94;5074316;28;20658;-26
2024/01/29 07:04:32;;;;;;;6.77;4.77;;;;;;;19.03;36.15;98932.88;5073665;28;20270;-25
2024/01/29 07:06:59;;;;;;;5.60;4.40;;;;;;;19.03;36.72;98930.31;5073800;28;20243;-27
2024/01/29 07:09:25;;;;;;;7.43;4.17;;;;;;;19.03;37.49;98930.31;5069146;28;20255;-25
2024/01/29 07:11:56;;;;;;;6.60;4.10;;;;;;;19.03;37.93;98942.16;5071091;28;20200;-25
2024/01/29 07:14:22;;;;;;;6.17;4.07;;;;;;;19.03;38.31;98937.06;5074337;28;20220;-25
2024/01/29 07:16:49;;;;;;;7.73;4.30;;;;;;;19.04;38.44;98949.03;5074127;28;20254;-26
2024/01/29 07:19:22;;;;;;;8.57;4.63;;;;;;;19.04;38.91;98944.81;5070631;28;20205;-26
2024/01/29 07:21:50;;;;;;;7.70;3.57;;;;;;;19.05;39.40;98954.22;5071002;28;20207;-28
2024/01/29 07:24:17;;;;;;;5.63;4.07;;;;;;;19.06;39.55;98950.00;5073793;28;20346;-26
2024/01/29 07:26:44;;;;;;;6.43;4.10;;;;;;;19.08;39.31;98956.06;5073859;28;20235;-25
2024/01/29 07:29:10;;;;;;;4.87;3.60;;;;;;;19.07;40.08;98954.31;5074068;28;20688;-25
2024/01/29 07:31:37;;;;;;;5.27;4.20;;;;;;;19.10;40.47;98955.38;5074251;28;20266;-25
2024/01/29 07:34:03;;;;;;;4.40;3.70;;;;;;;19.13;40.55;98952.16;5073920;28;20196;-27
2024/01/29 07:36:30;;;;;;;4.93;3.77;;;;;;;19.14;40.40;98947.16;5067860;28;20223;-25
2024/01/29 07:38:57;;;;;;;8.33;4.17;;;;;;;19.16;40.34;98944.69;5073785;28;20196;-25
2024/01/29 07:41:23;;;;;;;5.70;3.70;;;;;;;19.18;40.05;98946.53;5073746;28;20654;-25
2024/01/29 07:43:50;;;;;;;4.87;3.90;;;;;;;19.17;40.59;98943.91;5074109;28;20228;-26
2024/01/29 07:46:16;;;;;;;4.77;3.53;;;;;;;19.19;40.56;98942.34;5067573;28;20303;-26
2024/01/29 07:48:44;;;;;;;4.53;3.60;;;;;;;19.19;40.88;98944.88;5073848;28;20647;-25
2024/01/29 07:51:11;;;;;;;4.27;3.50;;;;;;;19.18;40.90;98943.09;5071686;28;20201;-25
2024/01/29 07:53:37;;;;;;;4.20;3.37;;;;;;;19.19;41.19;98942.34;5065969;28;20254;-25
2024/01/29 07:56:04;;;;;;;4.23;3.47;;;;;;;19.19;41.15;98948.28;5073179;28;20287;-25
2024/01/29 07:58:31;;;;;;;5.13;3.80;;;;;;;19.20;41.21;98944.09;5073917;28;20216;-25
2024/01/29 08:00:57;;;;;;;4.10;3.43;;;;;;;19.20;41.34;98941.53;5073451;28;20291;-25
2024/01/29 08:03:24;;;;;;;4.27;3.23;;;;;;;19.21;41.59;98943.28;5073329;28;20241;-25
2024/01/29 08:05:51;;;;;;;3.90;3.30;;;;;;;19.20;41.33;98944.97;5072786;28;20626;-27
2024/01/29 08:08:17;;;;;;;4.27;3.40;;;;;;;19.21;41.63;98948.38;5073211;28;20196;-25
2024/01/29 08:10:44;;;;;;;3.97;3.50;;;;;;;19.22;41.61;98950.16;5069876;28;20275;-25
2024/01/29 08:13:11;;;;;;;4.10;3.27;;;;;;;19.24;41.51;98948.56;5073550;28;20250;-25
2024/01/29 08:15:37;;;;;;;4.23;3.33;;;;;;;19.24;41.82;98957.09;5072999;28;20311;-25
2024/01/29 08:18:04;;;;;;;3.50;3.20;;;;;;;19.26;41.87;98947.88;5073479;28;20200;-25
2024/01/29 08:20:31;;;;;;;3.73;3.13;;;;;;;19.25;41.86;98942.69;5063739;28;20231;-25
2024/01/29 08:22:58;;;;;;;5.73;3.37;;;;;;;19.27;42.04;98943.72;5072912;28;20207;-26
2024/01/29 08:25:26;;;;;;;3.47;3.10;;;;;;;19.26;41.79;98944.44;5073174;28;20270;-25
2024/01/29 08:27:52;;;;;;;3.80;3.10;;;;;;;19.27;42.07;98947.13;5072945;28;20204;-25
2024/01/29 08:30:19;;;;;;;4.20;3.07;;;;;;;19.27;41.96;98946.28;5073398;28;20200;-25
2024/01/29 08:32:46;;;;;;;3.97;3.27;;;;;;;19.26;42.16;98950.44;5073453;28;20200;-25
2024/01/29 08:35:13;;;;;;;3.90;3.27;;;;;;;19.25;42.05;98946.16;5072480;28;20212;-25
2024/01/29 08:37:41;;;;;;;3.53;3.20;;;;;;;19.27;42.34;98956.47;5072971;28;20282;-25
2024/01/29 08:40:07;;;;;;;3.23;2.93;;;;;;;19.27;42.25;98959.00;5072480;28;20196;-25
2024/01/29 08:42:34;;;;;;;3.80;3.03;;;;;;;19.27;42.43;98953.91;5073048;28;20291;-25
2024/01/29 08:45:01;;;;;;;3.63;3.30;;;;;;;19.27;42.43;98956.47;5069632;28;20220;-26
2024/01/29 08:47:27;;;;;;;3.03;2.73;;;;;;;19.26;42.46;98962.28;5072843;28;20257;-25
2024/01/29 08:49:54;;;;;;;3.50;3.20;;;;;;;19.27;42.75;98956.47;5072620;28;20204;-25
2024/01/29 08:52:21;;;;;;;3.40;2.90;;;;;;;19.26;42.67;98954.66;5063981;28;20207;-25
2024/01/29 08:54:48;;;;;;;3.60;2.83;;;;;;;19.26;42.60;98952.09;5067902;28;20201;-25
2024/01/29 08:57:15;;;;;;;4.07;3.27;;;;;;;19.22;42.58;98945.06;5070208;28;20249;-25
2024/01/29 08:59:42;;;;;;;3.20;2.90;;;;;;;19.32;42.56;98965.25;5067252;28;20232;-26
2024/01/29 09:02:08;;;;;;;2.87;2.57;;;;;;;19.32;42.59;98955.06;5072308;28;20200;-25
2024/01/29 09:04:35;;;;;;;3.20;2.87;;;;;;;19.32;42.59;98957.59;5072094;28;20632;-25
2024/01/29 09:07:02;;;;;;;3.20;2.90;;;;;;;19.31;42.58;98987.34;5072207;28;20205;-25
2024/01/29 09:09:28;;;;;;;3.57;3.17;;;;;;;19.30;41.91;98954.09;5065313;28;20223;-25
2024/01/29 09:11:55;;;;;;;3.70;3.00;;;;;;;19.30;41.61;98971.94;5067779;28;20250;-25
2024/01/29 09:14:22;;;;;;;4.47;3.47;;;;;;;19.30;41.51;98964.28;5058405;28;20702;-29
2024/01/29 09:16:49;;;;;;;4.10;3.53;;;;;;;19.30;42.15;98964.28;5066417;28;20220;-25
2024/01/29 09:19:16;;;;;;;3.77;3.13;;;;;;;19.29;42.08;98963.41;5071131;28;20204;-25
2024/01/29 09:21:49;;;;;;;4.73;3.50;;;;;;;19.27;42.47;98964.09;5073729;28;20222;-25
2024/01/29 09:24:16;;;;;;;3.53;3.10;;;;;;;19.27;42.58;98959.00;5069825;28;20228;-30
2024/01/29 09:26:43;;;;;;;3.70;2.83;;;;;;;19.29;42.65;98972.72;5071098;28;20232;-25
2024/01/29 09:29:10;;;;;;;4.30;3.23;;;;;;;19.27;42.55;98964.97;5068176;28;20232;-25
2024/01/29 09:31:36;;;;;;;4.13;3.00;;;;;;;19.29;42.66;98980.34;5067390;28;20200;-28
2024/01/29 09:34:03;;;;;;;3.80;3.07;;;;;;;19.30;42.70;98975.34;5068202;28;20712;-27
2024/01/29 09:36:30;;;;;;;3.63;3.00;;;;;;;19.32;43.03;98985.66;5061859;28;20252;-25
2024/01/29 09:38:58;;;;;;;4.47;3.17;;;;;;;19.32;42.66;98978.88;5070388;28;20206;-25
2024/01/29 09:41:25;;;;;;;3.80;2.80;;;;;;;19.34;42.73;98984.06;5062362;28;20197;-25
2024/01/29 09:43:52;;;;;;;3.10;2.80;;;;;;;19.35;42.58;98993.47;5058517;28;20201;-26
2024/01/29 09:46:18;;;;;;;3.17;2.67;;;;;;;19.31;42.58;98977.13;5047946;28;20232;-25
2024/01/29 09:48:45;;;;;;;4.30;3.00;;;;;;;19.31;42.68;98982.25;5045825;28;20674;-26
2024/01/29 09:51:14;;;;;;;3.03;2.80;;;;;;;19.33;42.84;98987.44;5064036;28;20196;-25
2024/01/29 09:53:40;;;;;;;3.77;3.00;;;;;;;19.32;42.89;98989.09;5063668;28;20204;-25
2024/01/29 09:56:07;;;;;;;3.10;2.80;;;;;;;19.34;42.61;98986.63;5057100;28;20694;-29
2024/01/29 09:58:34;;;;;;;3.30;2.77;;;;;;;19.34;42.88;98981.53;5062848;28;20387;-25
2024/01/29 10:01:02;;;;;;;3.10;2.80;;;;;;;19.31;42.71;98987.34;5058646;28;20284;-25
2024/01/29 10:03:31;;;;;;;2.80;2.60;;;;;;;19.33;42.92;98989.97;5051029;28;20291;-25
2024/01/29 10:05:58;;;;;;;3.83;2.70;;;;;;;19.32;43.09;98986.53;5067059;28;20232;-35
2024/01/29 10:08:25;;;;;;;3.10;2.80;;;;;;;19.33;43.06;98984.88;5069846;28;20203;-25
2024/01/29 10:10:51;;;;;;;2.63;2.43;;;;;;;19.33;43.15;98987.44;5067822;28;20211;-25
2024/01/29 10:13:18;;;;;;;3.20;2.90;;;;;;;19.34;43.24;98982.41;5062725;28;20203;-26
2024/01/29 10:15:45;;;;;;;3.07;2.70;;;;;;;19.34;43.35;98976.44;5065607;28;20590;-25
2024/01/29 10:18:12;;;;;;;3.07;2.70;;;;;;;19.34;43.27;98981.53;5065979;28;20205;-25
2024/01/29 10:20:39;;;;;;;3.33;2.93;;;;;;;19.35;43.10;98975.63;5063921;28;20623;-25
2024/01/29 10:23:06;;;;;;;3.17;2.80;;;;;;;19.37;43.26;98976.63;5067582;28;20287;-25
2024/01/29 10:25:34;;;;;;;3.03;2.57;;;;;;;19.39;43.37;98983.56;5063246;28;20221;-26
2024/01/29 10:28:13;;;;;;;2.77;2.57;;;;;;;19.38;43.18;98979.25;5066092;28;20211;-34
2024/01/29 10:30:40;;;;;;;2.50;2.30;;;;;;;19.36;43.25;98972.31;5063133;28;20659;-25
2024/01/29 10:33:07;;;;;;;2.97;2.67;;;;;;;19.37;43.21;98977.50;5067468;28;20208;-28
2024/01/29 10:35:37;;;;;;;2.97;2.60;;;;;;;19.38;43.41;98973.25;5073098;28;20244;-27
2024/01/29 10:38:05;;;;;;;3.03;2.70;;;;;;;19.36;43.46;98970.63;5062185;28;20287;-25
2024/01/29 10:40:32;;;;;;;2.80;2.60;;;;;;;19.35;43.32;98960.34;5069093;28;20203;-25
2024/01/29 10:42:59;;;;;;;3.03;2.70;;;;;;;19.36;43.48;98962.13;5071007;28;20209;-26
2024/01/29 10:45:27;;;;;;;2.90;2.67;;;;;;;19.37;43.50;98967.31;5070697;28;20220;-25
2024/01/29 10:47:59;;;;;;;3.07;2.50;;;;;;;19.33;43.45;98955.16;5062963;28;20756;-25
2024/01/29 10:50:26;;;;;;;2.90;2.47;;;;;;;19.35;43.45;98966.31;5063588;28;20292;-27
2024/01/29 10:52:52;;;;;;;4.17;2.63;;;;;;;19.33;43.65;98956.84;5067041;28;20208;-29
2024/01/29 10:55:19;;;;;;;2.70;2.50;;;;;;;19.36;43.43;98962.13;5045910;28;20267;-25
2024/01/29 10:57:46;;;;;;;2.80;2.60;;;;;;;19.37;43.50;98954.56;5050782;28;20230;-26
2024/01/29 11:00:17;;;;;;;2.60;2.40;;;;;;;19.36;43.52;98949.38;5069162;28;20562;-25
2024/01/29 11:02:44;;;;;;;2.63;2.37;;;;;;;19.40;43.05;98957.28;5069243;28;20451;-26
2024/01/29 11:05:11;;;;;;;2.70;2.50;;;;;;;19.41;43.49;98953.06;5064556;28;20227;-25
2024/01/29 11:07:38;;;;;;;2.60;2.40;;;;;;;19.38;43.23;98946.13;5067643;28;20315;-25
2024/01/29 11:10:18;;;;;;;3.07;2.77;;;;;;;19.35;43.59;98937.38;5054754;28;20213;-25
2024/01/29 11:12:45;;;;;;;2.67;2.47;;;;;;;19.39;43.49;98944.47;5068441;28;20200;-34
2024/01/29 11:15:12;;;;;;;2.97;2.53;;;;;;;19.40;43.55;98941.09;5062354;28;20223;-25
2024/01/29 11:17:40;;;;;;;3.40;2.80;;;;;;;19.35;43.68;98938.28;5065192;28;20213;-25
2024/01/29 11:20:11;;;;;;;4.87;2.50;;;;;;;19.38;43.67;98940.13;5071443;28;20570;-25
2024/01/29 11:22:41;;;;;;;3.43;2.60;;;;;;;19.37;43.66;98935.81;5071811;28;20337;-25
2024/01/29 11:25:17;;;;;;;2.50;2.30;;;;;;;19.39;43.73;98936.81;5073296;28;20270;-25
2024/01/29 11:27:45;;;;;;;3.07;2.60;;;;;;;19.37;43.80;98930.72;5067785;28;20251;-27
2024/01/29 11:30:25;;;;;;;2.80;2.60;;;;;;;19.32;43.73;98925.34;5065755;28;20213;-26
2024/01/29 11:32:56;;;;;;;2.70;2.50;;;;;;;19.38;43.84;98927.38;5070279;28;20214;-25